createdAt,value
2023-01-13T00:01:52.425Z,1.43
2023-01-13T00:04:22.399Z,1.37
2023-01-13T00:06:52.535Z,1.50
2023-01-13T00:09:22.709Z,1.17
2023-01-13T00:11:52.769Z,1.47
2023-01-13T00:14:26.420Z,1.30
2023-01-13T00:16:56.406Z,1.17
2023-01-13T00:19:26.436Z,2.60
2023-01-13T00:21:56.459Z,1.90
2023-01-13T00:24:26.533Z,1.07
2023-01-13T00:26:56.619Z,3.07
2023-01-13T00:29:29.403Z,2.00
2023-01-13T00:31:59.350Z,1.03
2023-01-13T00:34:29.415Z,1.07
2023-01-13T00:36:59.424Z,1.10
2023-01-13T00:39:29.560Z,2.30
2023-01-13T00:42:11.944Z,1.27
2023-01-13T00:44:44.667Z,1.13
2023-01-13T00:47:14.637Z,1.27
2023-01-13T00:49:44.962Z,1.30
2023-01-13T00:52:15.424Z,1.00
2023-01-13T00:55:01.063Z,1.47
2023-01-13T00:57:31.117Z,1.20
2023-01-13T01:00:04.903Z,1.00
2023-01-13T01:02:34.906Z,1.47
2023-01-13T01:05:05.008Z,1.13
2023-01-13T01:07:35.047Z,2.00
2023-01-13T01:10:05.231Z,1.00
2023-01-13T01:12:35.286Z,1.47
2023-01-13T01:15:10.219Z,1.10
2023-01-13T01:17:40.854Z,1.10
2023-01-13T01:20:12.777Z,0.90
2023-01-13T01:22:42.897Z,1.07
2023-01-13T01:25:13.164Z,0.90
2023-01-13T01:28:06.517Z,1.47
2023-01-13T01:30:41.949Z,1.67
2023-01-13T01:33:12.027Z,3.13
2023-01-13T01:35:42.983Z,1.13
2023-01-13T01:38:13.101Z,0.80
2023-01-13T01:40:43.282Z,0.93
2023-01-13T01:43:30.394Z,1.20
2023-01-13T01:46:03.211Z,0.70
2023-01-13T01:48:37.907Z,1.00
2023-01-13T01:51:12.540Z,0.70
2023-01-13T01:53:44.370Z,1.00
2023-01-13T01:56:14.478Z,1.03
2023-01-13T01:58:49.956Z,0.80
2023-01-13T02:01:23.027Z,0.80
2023-01-13T02:03:59.228Z,0.90
2023-01-13T02:06:30.906Z,0.70
2023-01-13T02:09:02.767Z,0.80
2023-01-13T02:11:47.565Z,1.70
2023-01-13T02:14:17.787Z,0.90
2023-01-13T02:17:02.483Z,1.00
2023-01-13T02:19:57.775Z,1.13
2023-01-13T02:22:46.104Z,0.80
2023-01-13T02:25:37.244Z,0.80
2023-01-13T02:28:24.893Z,0.80
2023-01-13T02:31:15.160Z,0.70
2023-01-13T02:33:58.036Z,0.70
2023-01-13T02:36:35.064Z,0.77
2023-01-13T02:39:12.372Z,0.60
2023-01-13T02:42:02.216Z,1.33
2023-01-13T02:44:40.115Z,0.77
2023-01-13T02:47:19.018Z,0.70
2023-01-13T02:49:52.772Z,0.60
2023-01-13T02:52:27.868Z,0.70
2023-01-13T02:55:02.305Z,0.80
2023-01-13T02:57:35.749Z,0.70
2023-01-13T03:00:08.933Z,0.70
2023-01-13T03:02:41.673Z,0.80
2023-01-13T03:05:16.994Z,0.73
2023-01-13T03:08:07.635Z,0.80
2023-01-13T03:10:47.569Z,0.97
2023-01-13T03:13:43.114Z,0.73
2023-01-13T03:16:23.826Z,0.80
2023-01-13T03:19:08.810Z,0.70
2023-01-13T03:21:44.104Z,0.70
2023-01-13T03:24:20.180Z,1.13
2023-01-13T03:26:53.921Z,0.60
2023-01-13T03:29:31.599Z,0.73
2023-01-13T03:32:05.998Z,0.73
2023-01-13T03:34:45.991Z,0.97
2023-01-13T03:37:19.837Z,1.07
2023-01-13T03:39:55.792Z,0.77
2023-01-13T03:42:29.307Z,1.90
2023-01-13T03:45:03.267Z,0.80
2023-01-13T03:47:41.241Z,0.70
2023-01-13T03:50:18.414Z,0.70
2023-01-13T03:52:52.248Z,0.70
2023-01-13T03:55:28.460Z,1.00
2023-01-13T03:58:04.266Z,1.20
2023-01-13T04:00:39.281Z,0.67
2023-01-13T04:03:13.450Z,0.77
2023-01-13T04:05:49.561Z,0.77
2023-01-13T04:08:23.748Z,0.77
2023-01-13T04:11:08.261Z,0.70
2023-01-13T04:13:54.927Z,0.80
2023-01-13T04:16:24.993Z,0.80
2023-01-13T04:18:54.955Z,1.80
2023-01-13T04:21:27.802Z,0.93
2023-01-13T04:23:57.815Z,0.70
2023-01-13T04:26:27.735Z,0.73
2023-01-13T04:28:57.667Z,0.70
2023-01-13T04:31:27.795Z,0.70
2023-01-13T04:33:57.850Z,0.70
2023-01-13T04:36:30.532Z,1.43
2023-01-13T04:39:00.451Z,3.63
2023-01-13T04:41:50.492Z,1.00
2023-01-13T04:44:20.428Z,1.43
2023-01-13T04:46:50.352Z,1.33
2023-01-13T04:49:20.311Z,0.70
2023-01-13T04:51:52.882Z,0.70
2023-01-13T04:54:22.865Z,0.80
2023-01-13T04:56:52.802Z,0.73
2023-01-13T04:59:22.735Z,1.20
2023-01-13T05:01:52.850Z,0.90
2023-01-13T05:04:22.967Z,1.30
2023-01-13T05:06:55.602Z,1.40
2023-01-13T05:09:25.557Z,1.40
2023-01-13T05:12:07.917Z,0.80
2023-01-13T05:14:50.281Z,1.23
2023-01-13T05:17:23.237Z,0.80
2023-01-13T05:19:56.131Z,4.70
2023-01-13T05:22:41.122Z,0.70
2023-01-13T05:25:24.490Z,1.00
2023-01-13T05:27:56.521Z,0.93
2023-01-13T05:30:28.281Z,0.60
2023-01-13T05:32:58.371Z,2.77
2023-01-13T05:35:29.192Z,0.80
2023-01-13T05:38:01.754Z,0.60
2023-01-13T05:40:44.242Z,1.00
2023-01-13T05:43:25.212Z,0.70
2023-01-13T05:45:59.235Z,0.90
2023-01-13T05:48:32.898Z,0.67
2023-01-13T05:51:03.526Z,1.90
2023-01-13T05:53:36.628Z,0.77
2023-01-13T05:56:08.201Z,0.90
2023-01-13T05:58:38.331Z,0.80
2023-01-13T06:01:10.300Z,1.03
2023-01-13T06:03:41.123Z,1.20
2023-01-13T06:06:11.430Z,1.23
2023-01-13T06:08:43.992Z,1.27
2023-01-13T06:11:13.981Z,0.87
2023-01-13T06:13:44.106Z,1.90
2023-01-13T06:16:14.157Z,1.20
2023-01-13T06:18:44.164Z,1.57
2023-01-13T06:21:14.095Z,2.27
2023-01-13T06:23:46.736Z,1.70
2023-01-13T06:26:20.413Z,1.33
2023-01-13T06:28:50.535Z,1.27
2023-01-13T06:31:21.518Z,1.00
2023-01-13T06:33:56.407Z,1.20
2023-01-13T06:36:33.821Z,1.47
2023-01-13T06:39:07.304Z,2.43
2023-01-13T06:41:49.904Z,1.40
2023-01-13T06:44:20.594Z,1.93
2023-01-13T06:46:50.823Z,1.53
2023-01-13T06:49:21.766Z,1.23
2023-01-13T06:51:52.369Z,1.73
2023-01-13T06:54:27.588Z,1.90
2023-01-13T06:57:17.952Z,0.80
2023-01-13T06:59:47.889Z,2.50
2023-01-13T07:02:17.946Z,0.90
2023-01-13T07:04:48.098Z,1.07
2023-01-13T07:07:18.075Z,3.57
2023-01-13T07:09:50.667Z,2.83
2023-01-13T07:12:20.663Z,1.67
2023-01-13T07:15:03.070Z,0.80
2023-01-13T07:17:33.502Z,0.97
2023-01-13T07:20:03.515Z,3.87
2023-01-13T07:22:33.614Z,2.37
2023-01-13T07:25:06.626Z,2.67
2023-01-13T07:27:36.614Z,1.20
2023-01-13T07:30:06.897Z,1.53
2023-01-13T07:32:36.969Z,0.80
2023-01-13T07:35:08.010Z,0.80
2023-01-13T07:37:39.700Z,1.10
2023-01-13T07:40:13.733Z,2.83
2023-01-13T07:42:56.101Z,0.80
2023-01-13T07:45:26.333Z,1.20
2023-01-13T07:47:56.575Z,1.00
2023-01-13T07:50:26.603Z,2.20
2023-01-13T07:53:00.168Z,0.63
2023-01-13T07:55:32.958Z,0.77
2023-01-13T07:58:02.896Z,1.07
2023-01-13T08:00:35.723Z,1.30
2023-01-13T08:03:05.849Z,2.73
2023-01-13T08:05:37.739Z,0.93
2023-01-13T08:08:08.203Z,3.40
2023-01-13T08:10:40.844Z,2.87
2023-01-13T08:13:21.176Z,0.80
2023-01-13T08:15:52.975Z,1.10
2023-01-13T08:18:24.812Z,1.30
2023-01-13T08:20:55.915Z,2.10
2023-01-13T08:23:26.430Z,1.10
2023-01-13T08:26:02.914Z,0.70
2023-01-13T08:28:33.902Z,1.10
2023-01-13T08:31:04.711Z,0.80
2023-01-13T08:33:34.954Z,1.63
2023-01-13T08:36:06.919Z,0.70
2023-01-13T08:38:38.153Z,0.80
2023-01-13T08:41:21.675Z,1.17
2023-01-13T08:43:51.647Z,1.40
2023-01-13T08:46:21.856Z,1.37
2023-01-13T08:48:51.831Z,0.70
2023-01-13T08:51:21.783Z,1.43
2023-01-13T08:53:51.803Z,0.83
2023-01-13T08:56:24.358Z,1.87
2023-01-13T08:58:55.575Z,1.67
2023-01-13T09:01:26.734Z,1.37
2023-01-13T09:03:57.491Z,1.50
2023-01-13T09:06:27.604Z,1.70
2023-01-13T09:08:57.573Z,1.33
2023-01-13T09:11:46.542Z,0.60
2023-01-13T09:14:20.461Z,1.03
2023-01-13T09:16:50.625Z,3.40
2023-01-13T09:19:20.606Z,3.33
2023-01-13T09:21:52.562Z,1.30
2023-01-13T09:24:22.517Z,1.40
2023-01-13T09:26:55.353Z,2.17
2023-01-13T09:29:25.589Z,2.90
2023-01-13T09:31:57.900Z,0.90
2023-01-13T09:34:40.459Z,2.20
2023-01-13T09:37:11.060Z,1.67
2023-01-13T09:39:41.058Z,2.73
2023-01-13T09:42:35.580Z,1.43
2023-01-13T09:45:09.592Z,2.10
2023-01-13T09:47:46.913Z,1.50
2023-01-13T09:50:34.076Z,2.73
2023-01-13T09:53:04.526Z,2.27
2023-01-13T09:55:37.340Z,1.67
2023-01-13T09:58:16.864Z,2.07
2023-01-13T10:00:53.882Z,2.00
2023-01-13T10:03:27.884Z,1.67
2023-01-13T10:06:04.789Z,1.40
2023-01-13T10:08:37.402Z,0.90
2023-01-13T10:11:28.029Z,1.10
2023-01-13T10:14:04.173Z,0.70
2023-01-13T10:16:42.553Z,1.60
2023-01-13T10:19:22.671Z,2.43
2023-01-13T10:22:22.843Z,0.93
2023-01-13T10:25:09.540Z,1.80
2023-01-13T10:27:41.869Z,2.67
2023-01-13T10:30:22.722Z,1.07
2023-01-13T10:32:57.552Z,1.13
2023-01-13T10:35:56.628Z,1.73
2023-01-13T10:38:33.878Z,2.20
2023-01-13T10:41:05.304Z,3.70
2023-01-13T10:43:35.549Z,0.90
2023-01-13T10:46:13.586Z,1.97
2023-01-13T10:48:45.311Z,1.37
2023-01-13T10:51:30.504Z,1.40
2023-01-13T10:54:03.726Z,1.03
2023-01-13T10:56:35.912Z,0.80
2023-01-13T10:59:17.301Z,1.73
2023-01-13T11:02:02.598Z,4.13
2023-01-13T11:04:39.007Z,0.83
2023-01-13T11:07:24.388Z,2.77
2023-01-13T11:10:13.428Z,4.83
2023-01-13T11:12:51.639Z,2.77
2023-01-13T11:15:25.460Z,1.73
2023-01-13T11:18:12.779Z,1.30
2023-01-13T11:20:44.988Z,3.20
2023-01-13T11:23:22.013Z,5.27
2023-01-13T11:25:57.828Z,4.17
2023-01-13T11:28:43.260Z,0.70
2023-01-13T11:31:21.514Z,6.40
2023-01-13T11:34:00.184Z,1.00
2023-01-13T11:36:36.046Z,1.67
2023-01-13T11:39:14.778Z,2.07
2023-01-13T11:41:47.474Z,1.83
2023-01-13T11:44:24.653Z,2.10
2023-01-13T11:46:56.425Z,2.30
2023-01-13T11:49:33.583Z,2.57
2023-01-13T11:52:10.761Z,2.77
2023-01-13T11:55:06.973Z,2.30
2023-01-13T11:57:56.566Z,3.03
2023-01-13T12:00:35.800Z,3.17
2023-01-13T12:03:25.194Z,3.10
2023-01-13T12:06:19.748Z,2.60
2023-01-13T12:09:11.992Z,1.57
2023-01-13T12:12:12.631Z,1.10
2023-01-13T12:14:56.738Z,3.30
2023-01-13T12:17:37.404Z,1.87
2023-01-13T12:20:23.827Z,1.80
2023-01-13T12:23:01.249Z,2.13
2023-01-13T12:25:37.497Z,3.97
2023-01-13T12:28:14.604Z,1.83
2023-01-13T12:30:51.774Z,2.53
2023-01-13T12:33:31.987Z,3.90
2023-01-13T12:36:09.144Z,3.63
2023-01-13T12:38:50.773Z,2.17
2023-01-13T12:41:36.919Z,2.80
2023-01-13T12:44:20.481Z,4.37
2023-01-13T12:46:58.818Z,2.63
2023-01-13T12:49:33.928Z,2.53
2023-01-13T12:52:22.242Z,2.37
2023-01-13T12:55:12.756Z,3.57
2023-01-13T12:57:42.812Z,3.80
2023-01-13T13:00:20.579Z,2.07
2023-01-13T13:03:31.022Z,5.37
2023-01-13T13:06:08.945Z,2.90
2023-01-13T13:08:53.528Z,7.43
2023-01-13T13:11:57.627Z,3.77
2023-01-13T13:15:06.836Z,3.47
2023-01-13T13:17:44.659Z,4.70
2023-01-13T13:20:54.086Z,3.70
2023-01-13T13:23:48.542Z,2.90
2023-01-13T13:26:25.091Z,4.87
2023-01-13T13:29:14.184Z,3.27
2023-01-13T13:32:16.210Z,3.87
2023-01-13T13:34:54.650Z,4.37
2023-01-13T13:38:01.489Z,4.87
2023-01-13T14:47:03.543Z,17.23
2023-01-13T14:49:39.533Z,4.50
2023-01-13T14:52:16.367Z,4.60
2023-01-13T14:54:52.108Z,2.70
2023-01-13T14:57:36.107Z,8.37
2023-01-13T15:00:22.905Z,3.33
2023-01-13T15:03:20.436Z,5.87
2023-01-13T15:06:02.127Z,5.07
2023-01-13T15:08:41.281Z,7.37
2023-01-13T15:11:25.333Z,3.33
2023-01-13T15:14:03.914Z,4.83
2023-01-13T15:16:37.850Z,5.50
2023-01-13T15:19:16.301Z,5.17
2023-01-13T15:21:53.282Z,3.33
2023-01-13T15:24:29.518Z,5.87
2023-01-13T15:27:06.070Z,6.43
2023-01-13T15:29:48.613Z,5.07
2023-01-13T15:32:22.123Z,3.43
2023-01-13T15:34:57.302Z,4.53
2023-01-13T15:37:28.780Z,3.80
2023-01-13T15:40:16.573Z,3.97
2023-01-13T15:42:59.214Z,3.77
2023-01-13T15:45:42.449Z,4.00
2023-01-13T15:48:13.802Z,5.70
2023-01-13T15:54:13.153Z,4.53
2023-01-13T15:59:34.715Z,4.37
2023-01-13T16:02:38.083Z,3.73
2023-01-13T16:05:14.691Z,4.37
2023-01-13T16:07:49.867Z,4.37
2023-01-13T16:10:23.603Z,6.30
2023-01-13T16:12:56.048Z,4.27
2023-01-13T16:15:39.396Z,5.63
2023-01-13T16:18:09.588Z,4.17
2023-01-13T16:20:39.844Z,14.80
2023-01-13T16:23:19.041Z,6.73
2023-01-13T16:25:55.033Z,4.37
2023-01-13T16:28:28.246Z,5.70
2023-01-13T16:30:58.428Z,5.17
2023-01-13T16:33:31.445Z,5.47
2023-01-13T16:36:12.651Z,4.63
2023-01-13T16:38:45.436Z,4.37
2023-01-13T16:41:19.364Z,5.47
2023-01-13T16:44:00.252Z,17.67
2023-01-13T16:46:32.442Z,6.30
2023-01-13T16:49:06.429Z,3.73
2023-01-13T16:51:36.466Z,3.83
2023-01-13T16:54:18.593Z,3.53
2023-01-13T16:56:48.592Z,3.63
2023-01-13T16:59:21.846Z,3.83
2023-01-13T17:01:58.392Z,5.40
2023-01-13T17:04:41.024Z,6.53
2023-01-13T17:07:12.684Z,6.97
2023-01-13T17:09:45.447Z,2.63
2023-01-13T17:12:17.506Z,4.67
2023-01-13T17:14:47.488Z,2.07
2023-01-13T17:17:32.867Z,5.43
2023-01-13T17:20:03.016Z,3.83
2023-01-13T17:22:58.269Z,3.43
2023-01-13T17:25:43.196Z,6.03
2023-01-13T17:28:27.777Z,4.20
2023-01-13T17:38:27.588Z,5.10
2023-01-13T17:41:32.117Z,2.60
2023-01-13T17:44:38.258Z,4.87
2023-01-13T17:47:57.863Z,3.43
2023-01-13T17:50:44.131Z,4.70
2023-01-13T17:53:54.488Z,4.90
2023-01-13T17:58:11.393Z,2.77
2023-01-13T18:06:17.567Z,4.00
2023-01-13T18:08:58.479Z,4.30
2023-01-13T18:15:26.915Z,2.80
2023-01-13T18:18:04.736Z,3.67
2023-01-13T18:21:12.093Z,12.07
2023-01-13T18:27:59.948Z,3.53
2023-01-13T18:31:12.757Z,5.87
2023-01-13T18:33:46.914Z,4.57
2023-01-13T18:37:10.392Z,6.57
2023-01-13T18:40:16.194Z,6.37
2023-01-13T18:43:05.414Z,6.63
2023-01-13T18:52:03.841Z,6.37
2023-01-13T18:53:32.563Z,6.80
2023-01-13T18:56:09.857Z,5.60
2023-01-13T19:03:39.359Z,8.40
2023-01-13T19:06:54.033Z,5.73
2023-01-13T19:09:31.228Z,6.73
2023-01-13T19:12:11.752Z,3.60
2023-01-13T19:14:55.067Z,7.37
2023-01-13T19:17:31.037Z,6.67
2023-01-13T19:20:08.027Z,4.53
2023-01-13T19:23:20.249Z,3.83
2023-01-13T19:25:58.953Z,8.87
2023-01-13T19:28:32.455Z,5.33
2023-01-13T19:31:23.368Z,8.30
2023-01-13T19:34:16.810Z,13.43
2023-01-13T19:36:47.046Z,4.83
2023-01-13T19:39:56.109Z,5.30
2023-01-13T19:42:57.538Z,3.53
2023-01-13T19:45:36.389Z,5.63
2023-01-13T19:48:41.417Z,7.57
2023-01-13T19:51:46.551Z,6.03
2023-01-13T19:54:34.322Z,3.50
2023-01-13T19:57:27.657Z,6.60
2023-01-13T20:00:11.446Z,3.67
2023-01-13T20:03:01.220Z,4.13
2023-01-13T20:05:48.002Z,4.87
2023-01-13T20:08:37.053Z,5.40
2023-01-13T20:11:27.807Z,3.70
2023-01-13T20:14:01.138Z,3.23
2023-01-13T20:16:44.626Z,7.33
2023-01-13T20:19:18.109Z,3.80
2023-01-13T20:22:32.254Z,4.37
2023-01-13T20:25:17.390Z,7.80
2023-01-13T20:28:00.217Z,4.83
2023-01-13T20:30:30.576Z,3.73
2023-01-13T20:33:20.161Z,4.10
2023-01-13T20:36:02.200Z,3.43
2023-01-13T20:41:46.273Z,7.37
2023-01-13T20:44:32.359Z,4.50
2023-01-13T20:47:20.256Z,3.50
2023-01-13T20:53:17.191Z,3.60
2023-01-13T20:55:59.454Z,4.90
2023-01-13T20:58:29.431Z,4.93
2023-01-13T21:01:02.272Z,5.57
2023-01-13T21:03:35.153Z,6.67
2023-01-13T21:06:20.839Z,7.57
2023-01-13T21:09:05.345Z,3.83
2023-01-13T21:11:48.276Z,2.53
2023-01-13T21:14:32.774Z,4.60
2023-01-13T21:17:30.986Z,2.77
2023-01-13T21:20:15.595Z,4.53
2023-01-13T21:22:52.149Z,2.43
2023-01-13T21:25:22.566Z,6.47
2023-01-13T21:27:52.573Z,5.67
2023-01-13T21:30:31.577Z,5.13
2023-01-13T21:33:04.288Z,6.77
2023-01-13T21:35:39.958Z,5.67
2023-01-13T21:38:17.393Z,5.87
2023-01-13T21:40:47.462Z,3.27
2023-01-13T21:43:35.321Z,4.00
2023-01-13T21:46:28.007Z,7.47
2023-01-13T21:49:03.691Z,3.27
2023-01-13T21:51:41.716Z,4.60
2023-01-13T21:54:17.202Z,3.00
2023-01-13T21:56:47.267Z,3.57
2023-01-13T21:59:40.501Z,5.57
2023-01-13T22:02:25.674Z,3.97
2023-01-13T22:05:08.847Z,2.73
2023-01-13T22:08:11.305Z,4.40
2023-01-13T22:10:58.044Z,4.10
2023-01-13T22:13:43.251Z,5.77
2023-01-13T22:16:41.760Z,4.93
2023-01-13T22:19:30.700Z,3.07
2023-01-13T22:22:03.129Z,3.03
2023-01-13T22:24:36.609Z,6.33
2023-01-13T22:27:29.181Z,4.40
2023-01-13T22:30:09.418Z,3.43
2023-01-13T22:32:44.961Z,4.67
2023-01-13T22:35:17.038Z,5.90
2023-01-13T22:37:54.044Z,2.73
2023-01-13T22:40:24.916Z,3.30
2023-01-13T22:43:01.868Z,4.57
2023-01-13T22:45:40.939Z,4.43
2023-01-13T22:48:25.604Z,4.10
2023-01-13T22:51:13.948Z,4.13
2023-01-13T22:53:45.423Z,4.23
2023-01-13T22:56:21.723Z,2.37
2023-01-13T22:59:01.342Z,2.70
2023-01-13T23:01:42.125Z,3.07
2023-01-13T23:04:14.803Z,5.93
2023-01-13T23:06:45.015Z,3.67
2023-01-13T23:09:18.327Z,3.47
2023-01-13T23:11:50.200Z,3.63
2023-01-13T23:14:23.380Z,2.97
2023-01-13T23:16:53.643Z,6.90
2023-01-13T23:19:23.725Z,5.33
2023-01-13T23:21:54.098Z,5.13
2023-01-13T23:24:26.018Z,3.07
2023-01-13T23:26:56.321Z,4.10
2023-01-13T23:29:28.989Z,5.13
2023-01-13T23:32:16.033Z,3.80
2023-01-13T23:34:46.024Z,7.13
2023-01-13T23:37:16.065Z,5.20
2023-01-13T23:39:46.057Z,5.43
2023-01-13T23:42:16.090Z,6.30
2023-01-13T23:44:48.856Z,4.23
2023-01-13T23:47:18.923Z,5.47
2023-01-13T23:49:48.924Z,3.53
2023-01-13T23:52:18.985Z,5.70
2023-01-13T23:54:48.941Z,7.10
2023-01-13T23:57:18.992Z,3.73
2023-01-13T23:59:51.600Z,3.37
